sensor_id;sensor_type;location;lat;lon;timestamp;P1;durP1;ratioP1;P2;durP2;ratioP2
60432;SDS011;46286;48.098;11.590;2022-08-03T00:00:45;6.90;;;2.65;;
60432;SDS011;46286;48.098;11.590;2022-08-03T00:03:11;4.80;;;2.95;;
60432;SDS011;46286;48.098;11.590;2022-08-03T00:05:36;5.47;;;2.63;;
60432;SDS011;46286;48.098;11.590;2022-08-03T00:08:02;6.47;;;3.45;;
60432;SDS011;46286;48.098;11.590;2022-08-03T00:10:27;4.15;;;2.60;;
60432;SDS011;46286;48.098;11.590;2022-08-03T00:12:53;8.68;;;3.00;;
60432;SDS011;46286;48.098;11.590;2022-08-03T00:15:19;4.22;;;2.70;;
60432;SDS011;46286;48.098;11.590;2022-08-03T00:17:44;6.78;;;2.95;;
60432;SDS011;46286;48.098;11.590;2022-08-03T00:20:10;6.97;;;2.78;;
60432;SDS011;46286;48.098;11.590;2022-08-03T00:22:36;6.28;;;2.92;;
60432;SDS011;46286;48.098;11.590;2022-08-03T00:25:01;6.85;;;2.70;;
60432;SDS011;46286;48.098;11.590;2022-08-03T00:27:27;4.05;;;2.33;;
60432;SDS011;46286;48.098;11.590;2022-08-03T00:29:52;7.25;;;2.55;;
60432;SDS011;46286;48.098;11.590;2022-08-03T00:32:18;4.93;;;2.70;;
60432;SDS011;46286;48.098;11.590;2022-08-03T00:34:43;4.75;;;2.45;;
60432;SDS011;46286;48.098;11.590;2022-08-03T00:37:09;5.20;;;2.70;;
60432;SDS011;46286;48.098;11.590;2022-08-03T00:39:34;4.10;;;2.40;;
60432;SDS011;46286;48.098;11.590;2022-08-03T00:42:03;4.65;;;2.60;;
60432;SDS011;46286;48.098;11.590;2022-08-03T00:44:29;3.15;;;2.10;;
60432;SDS011;46286;48.098;11.590;2022-08-03T00:46:55;5.35;;;2.55;;
60432;SDS011;46286;48.098;11.590;2022-08-03T00:49:20;5.95;;;2.40;;
60432;SDS011;46286;48.098;11.590;2022-08-03T00:51:46;5.72;;;2.42;;
60432;SDS011;46286;48.098;11.590;2022-08-03T00:54:12;4.18;;;2.22;;
60432;SDS011;46286;48.098;11.590;2022-08-03T00:56:39;5.38;;;2.40;;
60432;SDS011;46286;48.098;11.590;2022-08-03T00:59:05;6.00;;;2.30;;
60432;SDS011;46286;48.098;11.590;2022-08-03T01:01:31;4.22;;;2.33;;
60432;SDS011;46286;48.098;11.590;2022-08-03T01:03:57;4.10;;;2.33;;
60432;SDS011;46286;48.098;11.590;2022-08-03T01:06:31;4.40;;;2.42;;
60432;SDS011;46286;48.098;11.590;2022-08-03T01:09:08;4.00;;;2.30;;
60432;SDS011;46286;48.098;11.590;2022-08-03T01:11:54;5.05;;;2.83;;
60432;SDS011;46286;48.098;11.590;2022-08-03T01:20:06;5.07;;;2.45;;
60432;SDS011;46286;48.098;11.590;2022-08-03T01:28:18;4.45;;;2.15;;
60432;SDS011;46286;48.098;11.590;2022-08-03T01:31:04;5.22;;;2.30;;
60432;SDS011;46286;48.098;11.590;2022-08-03T01:33:39;3.88;;;2.10;;
60432;SDS011;46286;48.098;11.590;2022-08-03T01:36:17;4.10;;;2.50;;
60432;SDS011;46286;48.098;11.590;2022-08-03T01:38:48;3.83;;;2.47;;
60432;SDS011;46286;48.098;11.590;2022-08-03T01:41:28;2.88;;;2.10;;
60432;SDS011;46286;48.098;11.590;2022-08-03T01:43:57;3.45;;;2.25;;
60432;SDS011;46286;48.098;11.590;2022-08-03T01:46:25;3.55;;;2.33;;
60432;SDS011;46286;48.098;11.590;2022-08-03T01:48:54;3.95;;;2.30;;
60432;SDS011;46286;48.098;11.590;2022-08-03T01:51:21;3.53;;;2.10;;
60432;SDS011;46286;48.098;11.590;2022-08-03T01:53:47;3.10;;;2.30;;
60432;SDS011;46286;48.098;11.590;2022-08-03T01:56:15;3.45;;;2.40;;
60432;SDS011;46286;48.098;11.590;2022-08-03T01:58:43;3.53;;;2.22;;
60432;SDS011;46286;48.098;11.590;2022-08-03T02:01:13;3.83;;;2.17;;
60432;SDS011;46286;48.098;11.590;2022-08-03T02:03:41;4.57;;;2.20;;
60432;SDS011;46286;48.098;11.590;2022-08-03T02:06:09;6.15;;;2.33;;
60432;SDS011;46286;48.098;11.590;2022-08-03T02:08:36;3.35;;;2.13;;
60432;SDS011;46286;48.098;11.590;2022-08-03T02:11:04;5.30;;;2.03;;
60432;SDS011;46286;48.098;11.590;2022-08-03T02:13:32;5.72;;;2.20;;
60432;SDS011;46286;48.098;11.590;2022-08-03T02:15:58;4.60;;;2.42;;
60432;SDS011;46286;48.098;11.590;2022-08-03T02:18:25;7.28;;;2.50;;
60432;SDS011;46286;48.098;11.590;2022-08-03T02:20:53;4.55;;;2.30;;
60432;SDS011;46286;48.098;11.590;2022-08-03T02:23:19;3.47;;;2.30;;
60432;SDS011;46286;48.098;11.590;2022-08-03T02:25:46;4.13;;;2.22;;
60432;SDS011;46286;48.098;11.590;2022-08-03T02:28:18;3.50;;;2.20;;
60432;SDS011;46286;48.098;11.590;2022-08-03T02:30:51;3.05;;;2.05;;
60432;SDS011;46286;48.098;11.590;2022-08-03T02:33:21;3.33;;;2.30;;
60432;SDS011;46286;48.098;11.590;2022-08-03T02:35:52;3.47;;;2.22;;
60432;SDS011;46286;48.098;11.590;2022-08-03T02:38:19;4.45;;;2.20;;
60432;SDS011;46286;48.098;11.590;2022-08-03T02:40:48;6.03;;;2.20;;
60432;SDS011;46286;48.098;11.590;2022-08-03T02:43:16;3.72;;;2.38;;
60432;SDS011;46286;48.098;11.590;2022-08-03T02:45:46;3.63;;;2.05;;
60432;SDS011;46286;48.098;11.590;2022-08-03T02:48:20;3.55;;;2.28;;
60432;SDS011;46286;48.098;11.590;2022-08-03T02:50:52;3.80;;;2.45;;
60432;SDS011;46286;48.098;11.590;2022-08-03T02:53:21;7.43;;;2.40;;
60432;SDS011;46286;48.098;11.590;2022-08-03T02:55:48;4.93;;;2.25;;
60432;SDS011;46286;48.098;11.590;2022-08-03T02:58:16;3.03;;;2.10;;
60432;SDS011;46286;48.098;11.590;2022-08-03T03:00:43;3.58;;;2.22;;
60432;SDS011;46286;48.098;11.590;2022-08-03T03:03:09;3.83;;;2.20;;
60432;SDS011;46286;48.098;11.590;2022-08-03T03:05:35;2.97;;;2.00;;
60432;SDS011;46286;48.098;11.590;2022-08-03T03:08:02;3.45;;;2.13;;
60432;SDS011;46286;48.098;11.590;2022-08-03T03:10:28;3.13;;;2.10;;
60432;SDS011;46286;48.098;11.590;2022-08-03T03:12:54;4.47;;;2.20;;
60432;SDS011;46286;48.098;11.590;2022-08-03T03:15:22;3.70;;;2.42;;
60432;SDS011;46286;48.098;11.590;2022-08-03T03:17:50;3.90;;;2.33;;
60432;SDS011;46286;48.098;11.590;2022-08-03T03:20:15;3.47;;;2.28;;
60432;SDS011;46286;48.098;11.590;2022-08-03T03:22:42;3.75;;;2.22;;
60432;SDS011;46286;48.098;11.590;2022-08-03T03:25:08;3.25;;;2.00;;
60432;SDS011;46286;48.098;11.590;2022-08-03T03:27:34;8.10;;;2.40;;
60432;SDS011;46286;48.098;11.590;2022-08-03T03:30:00;6.00;;;2.45;;
60432;SDS011;46286;48.098;11.590;2022-08-03T03:32:27;3.97;;;2.33;;
60432;SDS011;46286;48.098;11.590;2022-08-03T03:34:53;3.05;;;2.20;;
60432;SDS011;46286;48.098;11.590;2022-08-03T03:37:20;4.25;;;2.20;;
60432;SDS011;46286;48.098;11.590;2022-08-03T03:39:46;4.45;;;2.72;;
60432;SDS011;46286;48.098;11.590;2022-08-03T03:42:12;4.65;;;2.60;;
60432;SDS011;46286;48.098;11.590;2022-08-03T03:44:37;2.92;;;2.08;;
60432;SDS011;46286;48.098;11.590;2022-08-03T03:47:03;4.53;;;2.28;;
60432;SDS011;46286;48.098;11.590;2022-08-03T03:49:29;4.85;;;2.20;;
60432;SDS011;46286;48.098;11.590;2022-08-03T03:51:55;4.72;;;2.20;;
60432;SDS011;46286;48.098;11.590;2022-08-03T03:54:21;2.90;;;2.10;;
60432;SDS011;46286;48.098;11.590;2022-08-03T03:56:47;4.63;;;2.10;;
60432;SDS011;46286;48.098;11.590;2022-08-03T03:59:12;4.07;;;2.15;;
60432;SDS011;46286;48.098;11.590;2022-08-03T04:01:38;6.43;;;2.40;;
60432;SDS011;46286;48.098;11.590;2022-08-03T04:04:04;4.22;;;2.40;;
60432;SDS011;46286;48.098;11.590;2022-08-03T04:06:49;3.53;;;2.25;;
60432;SDS011;46286;48.098;11.590;2022-08-03T04:09:36;3.40;;;2.17;;
60432;SDS011;46286;48.098;11.590;2022-08-03T04:12:23;4.90;;;2.30;;
60432;SDS011;46286;48.098;11.590;2022-08-03T04:14:52;4.88;;;2.63;;
60432;SDS011;46286;48.098;11.590;2022-08-03T04:17:20;4.10;;;2.60;;
60432;SDS011;46286;48.098;11.590;2022-08-03T04:19:51;8.43;;;2.50;;
60432;SDS011;46286;48.098;11.590;2022-08-03T04:22:19;3.90;;;2.30;;
60432;SDS011;46286;48.098;11.590;2022-08-03T04:24:48;4.82;;;2.35;;
60432;SDS011;46286;48.098;11.590;2022-08-03T04:27:18;5.13;;;2.10;;
60432;SDS011;46286;48.098;11.590;2022-08-03T04:29:47;3.47;;;2.20;;
60432;SDS011;46286;48.098;11.590;2022-08-03T04:32:15;4.65;;;2.65;;
60432;SDS011;46286;48.098;11.590;2022-08-03T04:34:42;6.35;;;2.55;;
60432;SDS011;46286;48.098;11.590;2022-08-03T04:37:11;6.18;;;2.13;;
60432;SDS011;46286;48.098;11.590;2022-08-03T04:39:43;7.25;;;2.30;;
60432;SDS011;46286;48.098;11.590;2022-08-03T04:42:11;5.05;;;2.40;;
60432;SDS011;46286;48.098;11.590;2022-08-03T04:44:39;4.28;;;2.22;;
60432;SDS011;46286;48.098;11.590;2022-08-03T04:47:06;3.35;;;2.20;;
60432;SDS011;46286;48.098;11.590;2022-08-03T04:49:32;3.55;;;2.40;;
60432;SDS011;46286;48.098;11.590;2022-08-03T04:52:00;4.95;;;2.60;;
60432;SDS011;46286;48.098;11.590;2022-08-03T04:54:26;5.85;;;2.30;;
60432;SDS011;46286;48.098;11.590;2022-08-03T04:56:51;4.55;;;2.63;;
60432;SDS011;46286;48.098;11.590;2022-08-03T04:59:17;3.92;;;2.38;;
60432;SDS011;46286;48.098;11.590;2022-08-03T05:01:43;3.38;;;2.25;;
60432;SDS011;46286;48.098;11.590;2022-08-03T05:04:08;5.70;;;2.50;;
60432;SDS011;46286;48.098;11.590;2022-08-03T05:06:34;3.85;;;2.35;;
60432;SDS011;46286;48.098;11.590;2022-08-03T05:09:00;4.03;;;2.25;;
60432;SDS011;46286;48.098;11.590;2022-08-03T05:11:25;4.57;;;2.45;;
60432;SDS011;46286;48.098;11.590;2022-08-03T05:13:50;5.10;;;2.40;;
60432;SDS011;46286;48.098;11.590;2022-08-03T05:16:16;4.38;;;2.40;;
60432;SDS011;46286;48.098;11.590;2022-08-03T05:18:42;3.90;;;2.42;;
60432;SDS011;46286;48.098;11.590;2022-08-03T05:21:08;3.90;;;2.50;;
60432;SDS011;46286;48.098;11.590;2022-08-03T05:23:35;5.75;;;2.40;;
60432;SDS011;46286;48.098;11.590;2022-08-03T05:26:00;6.05;;;2.28;;
60432;SDS011;46286;48.098;11.590;2022-08-03T05:28:26;3.83;;;2.40;;
60432;SDS011;46286;48.098;11.590;2022-08-03T05:30:51;3.55;;;2.55;;
60432;SDS011;46286;48.098;11.590;2022-08-03T05:33:17;8.18;;;2.45;;
60432;SDS011;46286;48.098;11.590;2022-08-03T05:35:42;3.88;;;2.30;;
60432;SDS011;46286;48.098;11.590;2022-08-03T05:38:08;5.00;;;2.70;;
60432;SDS011;46286;48.098;11.590;2022-08-03T05:40:33;4.43;;;2.38;;
60432;SDS011;46286;48.098;11.590;2022-08-03T05:42:59;4.50;;;2.30;;
60432;SDS011;46286;48.098;11.590;2022-08-03T05:45:25;4.15;;;2.38;;
60432;SDS011;46286;48.098;11.590;2022-08-03T05:47:51;7.43;;;2.80;;
60432;SDS011;46286;48.098;11.590;2022-08-03T05:50:17;3.70;;;2.60;;
60432;SDS011;46286;48.098;11.590;2022-08-03T05:52:44;4.05;;;2.47;;
60432;SDS011;46286;48.098;11.590;2022-08-03T05:55:10;4.43;;;2.35;;
60432;SDS011;46286;48.098;11.590;2022-08-03T05:57:36;4.72;;;2.60;;
60432;SDS011;46286;48.098;11.590;2022-08-03T06:00:06;4.88;;;2.20;;
60432;SDS011;46286;48.098;11.590;2022-08-03T06:02:34;4.80;;;2.47;;
60432;SDS011;46286;48.098;11.590;2022-08-03T06:04:59;4.00;;;2.33;;
60432;SDS011;46286;48.098;11.590;2022-08-03T06:07:25;3.20;;;2.30;;
60432;SDS011;46286;48.098;11.590;2022-08-03T06:09:50;3.80;;;2.40;;
60432;SDS011;46286;48.098;11.590;2022-08-03T06:12:16;5.40;;;2.40;;
60432;SDS011;46286;48.098;11.590;2022-08-03T06:14:42;4.60;;;2.25;;
60432;SDS011;46286;48.098;11.590;2022-08-03T06:17:07;3.55;;;2.30;;
60432;SDS011;46286;48.098;11.590;2022-08-03T06:19:33;4.35;;;2.45;;
60432;SDS011;46286;48.098;11.590;2022-08-03T06:21:58;4.70;;;2.80;;
60432;SDS011;46286;48.098;11.590;2022-08-03T06:24:24;5.65;;;2.47;;
60432;SDS011;46286;48.098;11.590;2022-08-03T06:26:49;5.10;;;2.60;;
60432;SDS011;46286;48.098;11.590;2022-08-03T06:29:15;3.40;;;2.40;;
60432;SDS011;46286;48.098;11.590;2022-08-03T06:31:40;3.63;;;2.28;;
60432;SDS011;46286;48.098;11.590;2022-08-03T06:34:06;2.67;;;2.05;;
60432;SDS011;46286;48.098;11.590;2022-08-03T06:36:31;3.85;;;2.40;;
60432;SDS011;46286;48.098;11.590;2022-08-03T06:38:57;3.85;;;2.22;;
60432;SDS011;46286;48.098;11.590;2022-08-03T06:41:23;5.15;;;2.75;;
60432;SDS011;46286;48.098;11.590;2022-08-03T06:43:49;7.25;;;2.90;;
60432;SDS011;46286;48.098;11.590;2022-08-03T06:46:15;7.63;;;2.60;;
60432;SDS011;46286;48.098;11.590;2022-08-03T06:48:40;5.13;;;2.55;;
60432;SDS011;46286;48.098;11.590;2022-08-03T06:51:06;7.18;;;2.58;;
60432;SDS011;46286;48.098;11.590;2022-08-03T06:53:31;5.78;;;2.65;;
60432;SDS011;46286;48.098;11.590;2022-08-03T06:55:57;4.95;;;2.55;;
60432;SDS011;46286;48.098;11.590;2022-08-03T06:58:22;8.00;;;2.50;;
60432;SDS011;46286;48.098;11.590;2022-08-03T07:00:48;4.07;;;2.53;;
60432;SDS011;46286;48.098;11.590;2022-08-03T07:03:13;3.90;;;2.33;;
60432;SDS011;46286;48.098;11.590;2022-08-03T07:05:40;11.23;;;2.35;;
60432;SDS011;46286;48.098;11.590;2022-08-03T07:08:06;3.88;;;2.30;;
60432;SDS011;46286;48.098;11.590;2022-08-03T07:10:32;3.03;;;2.30;;
60432;SDS011;46286;48.098;11.590;2022-08-03T07:12:57;3.10;;;2.20;;
60432;SDS011;46286;48.098;11.590;2022-08-03T07:15:23;4.38;;;2.58;;
60432;SDS011;46286;48.098;11.590;2022-08-03T07:17:49;3.30;;;2.33;;
60432;SDS011;46286;48.098;11.590;2022-08-03T07:20:15;4.70;;;2.00;;
60432;SDS011;46286;48.098;11.590;2022-08-03T07:22:42;8.38;;;2.20;;
60432;SDS011;46286;48.098;11.590;2022-08-03T07:25:08;3.55;;;2.20;;
60432;SDS011;46286;48.098;11.590;2022-08-03T07:27:35;2.63;;;2.00;;
60432;SDS011;46286;48.098;11.590;2022-08-03T07:30:04;2.85;;;2.00;;
60432;SDS011;46286;48.098;11.590;2022-08-03T07:32:30;3.97;;;2.30;;
60432;SDS011;46286;48.098;11.590;2022-08-03T07:34:55;5.82;;;2.35;;
60432;SDS011;46286;48.098;11.590;2022-08-03T07:37:21;3.33;;;2.28;;
60432;SDS011;46286;48.098;11.590;2022-08-03T07:39:47;3.97;;;2.30;;
60432;SDS011;46286;48.098;11.590;2022-08-03T07:42:12;4.95;;;2.78;;
60432;SDS011;46286;48.098;11.590;2022-08-03T07:44:38;8.10;;;2.15;;
60432;SDS011;46286;48.098;11.590;2022-08-03T07:47:04;8.32;;;2.42;;
60432;SDS011;46286;48.098;11.590;2022-08-03T07:49:30;6.95;;;2.30;;
60432;SDS011;46286;48.098;11.590;2022-08-03T07:51:55;3.30;;;2.10;;
60432;SDS011;46286;48.098;11.590;2022-08-03T07:54:39;3.28;;;2.30;;
60432;SDS011;46286;48.098;11.590;2022-08-03T07:57:04;4.72;;;2.30;;
60432;SDS011;46286;48.098;11.590;2022-08-03T07:59:30;3.17;;;1.90;;
60432;SDS011;46286;48.098;11.590;2022-08-03T08:01:55;2.40;;;1.80;;
60432;SDS011;46286;48.098;11.590;2022-08-03T08:04:21;2.90;;;2.00;;
60432;SDS011;46286;48.098;11.590;2022-08-03T08:06:46;2.45;;;1.75;;
60432;SDS011;46286;48.098;11.590;2022-08-03T08:09:12;3.03;;;2.15;;
60432;SDS011;46286;48.098;11.590;2022-08-03T08:11:38;2.70;;;2.08;;
60432;SDS011;46286;48.098;11.590;2022-08-03T08:14:04;3.10;;;1.98;;
60432;SDS011;46286;48.098;11.590;2022-08-03T08:16:29;3.22;;;2.00;;
60432;SDS011;46286;48.098;11.590;2022-08-03T08:18:55;5.15;;;2.67;;
60432;SDS011;46286;48.098;11.590;2022-08-03T08:21:20;4.28;;;2.00;;
60432;SDS011;46286;48.098;11.590;2022-08-03T08:23:46;3.97;;;2.00;;
60432;SDS011;46286;48.098;11.590;2022-08-03T08:26:11;5.00;;;2.00;;
60432;SDS011;46286;48.098;11.590;2022-08-03T08:28:37;2.75;;;1.80;;
60432;SDS011;46286;48.098;11.590;2022-08-03T08:31:03;6.28;;;2.10;;
60432;SDS011;46286;48.098;11.590;2022-08-03T08:33:29;2.88;;;1.90;;
60432;SDS011;46286;48.098;11.590;2022-08-03T08:35:54;3.88;;;2.17;;
60432;SDS011;46286;48.098;11.590;2022-08-03T08:38:21;2.28;;;1.88;;
60432;SDS011;46286;48.098;11.590;2022-08-03T08:40:47;3.65;;;2.10;;
60432;SDS011;46286;48.098;11.590;2022-08-03T08:43:14;3.03;;;1.80;;
60432;SDS011;46286;48.098;11.590;2022-08-03T08:45:40;4.55;;;1.90;;
60432;SDS011;46286;48.098;11.590;2022-08-03T08:48:06;2.75;;;1.92;;
60432;SDS011;46286;48.098;11.590;2022-08-03T08:50:33;2.38;;;2.00;;
60432;SDS011;46286;48.098;11.590;2022-08-03T08:53:02;4.25;;;2.20;;
60432;SDS011;46286;48.098;11.590;2022-08-03T08:55:28;3.40;;;1.73;;
60432;SDS011;46286;48.098;11.590;2022-08-03T08:57:58;5.10;;;1.83;;
60432;SDS011;46286;48.098;11.590;2022-08-03T09:00:29;2.85;;;2.08;;
60432;SDS011;46286;48.098;11.590;2022-08-03T09:02:55;3.22;;;1.80;;
60432;SDS011;46286;48.098;11.590;2022-08-03T09:05:21;3.53;;;1.90;;
60432;SDS011;46286;48.098;11.590;2022-08-03T09:07:47;3.95;;;1.80;;
60432;SDS011;46286;48.098;11.590;2022-08-03T09:10:14;2.40;;;1.55;;
60432;SDS011;46286;48.098;11.590;2022-08-03T09:12:47;3.75;;;1.73;;
60432;SDS011;46286;48.098;11.590;2022-08-03T09:15:15;2.90;;;1.70;;
60432;SDS011;46286;48.098;11.590;2022-08-03T09:17:43;3.13;;;1.85;;
60432;SDS011;46286;48.098;11.590;2022-08-03T09:20:09;3.22;;;1.85;;
60432;SDS011;46286;48.098;11.590;2022-08-03T09:22:35;5.78;;;1.85;;
60432;SDS011;46286;48.098;11.590;2022-08-03T09:25:16;4.43;;;1.85;;
60432;SDS011;46286;48.098;11.590;2022-08-03T09:27:42;2.33;;;1.90;;
60432;SDS011;46286;48.098;11.590;2022-08-03T09:30:13;4.53;;;2.00;;
60432;SDS011;46286;48.098;11.590;2022-08-03T09:32:40;2.70;;;1.77;;
60432;SDS011;46286;48.098;11.590;2022-08-03T09:35:06;3.33;;;1.90;;
60432;SDS011;46286;48.098;11.590;2022-08-03T09:37:32;3.20;;;1.90;;
60432;SDS011;46286;48.098;11.590;2022-08-03T09:39:58;3.60;;;1.90;;
60432;SDS011;46286;48.098;11.590;2022-08-03T09:42:23;4.70;;;1.77;;
60432;SDS011;46286;48.098;11.590;2022-08-03T09:44:51;3.92;;;1.73;;
60432;SDS011;46286;48.098;11.590;2022-08-03T09:47:30;3.97;;;2.10;;
60432;SDS011;46286;48.098;11.590;2022-08-03T09:49:58;3.70;;;1.95;;
60432;SDS011;46286;48.098;11.590;2022-08-03T09:52:32;2.15;;;1.63;;
60432;SDS011;46286;48.098;11.590;2022-08-03T09:55:12;2.15;;;1.65;;
60432;SDS011;46286;48.098;11.590;2022-08-03T09:57:39;4.80;;;1.90;;
60432;SDS011;46286;48.098;11.590;2022-08-03T10:00:14;3.00;;;1.77;;
60432;SDS011;46286;48.098;11.590;2022-08-03T10:02:41;5.63;;;2.15;;
60432;SDS011;46286;48.098;11.590;2022-08-03T10:05:09;3.50;;;1.85;;
60432;SDS011;46286;48.098;11.590;2022-08-03T10:07:42;2.72;;;1.90;;
60432;SDS011;46286;48.098;11.590;2022-08-03T10:10:10;4.78;;;2.17;;
60432;SDS011;46286;48.098;11.590;2022-08-03T10:12:36;3.65;;;2.20;;
60432;SDS011;46286;48.098;11.590;2022-08-03T10:15:03;4.63;;;1.90;;
60432;SDS011;46286;48.098;11.590;2022-08-03T10:17:29;2.95;;;2.00;;
60432;SDS011;46286;48.098;11.590;2022-08-03T10:19:55;3.30;;;2.08;;
60432;SDS011;46286;48.098;11.590;2022-08-03T10:22:23;4.20;;;1.90;;
60432;SDS011;46286;48.098;11.590;2022-08-03T10:27:31;3.42;;;2.00;;
60432;SDS011;46286;48.098;11.590;2022-08-03T10:29:59;4.30;;;1.90;;
60432;SDS011;46286;48.098;11.590;2022-08-03T10:35:11;2.75;;;1.90;;
60432;SDS011;46286;48.098;11.590;2022-08-03T10:37:41;2.97;;;2.00;;
60432;SDS011;46286;48.098;11.590;2022-08-03T10:40:09;2.53;;;1.98;;
60432;SDS011;46286;48.098;11.590;2022-08-03T10:42:39;2.92;;;2.08;;
60432;SDS011;46286;48.098;11.590;2022-08-03T10:45:08;4.65;;;2.00;;
60432;SDS011;46286;48.098;11.590;2022-08-03T10:47:42;6.40;;;1.98;;
60432;SDS011;46286;48.098;11.590;2022-08-03T10:50:08;3.17;;;2.00;;
60432;SDS011;46286;48.098;11.590;2022-08-03T10:52:34;3.50;;;1.95;;
60432;SDS011;46286;48.098;11.590;2022-08-03T10:55:00;6.03;;;2.50;;
60432;SDS011;46286;48.098;11.590;2022-08-03T10:57:51;5.72;;;2.50;;
60432;SDS011;46286;48.098;11.590;2022-08-03T11:00:19;4.05;;;2.13;;
60432;SDS011;46286;48.098;11.590;2022-08-03T11:03:04;3.25;;;2.00;;
60432;SDS011;46286;48.098;11.590;2022-08-03T11:05:39;7.68;;;2.28;;
60432;SDS011;46286;48.098;11.590;2022-08-03T11:10:43;5.22;;;2.25;;
60432;SDS011;46286;48.098;11.590;2022-08-03T11:13:10;4.28;;;2.00;;
60432;SDS011;46286;48.098;11.590;2022-08-03T11:15:40;3.33;;;2.13;;
60432;SDS011;46286;48.098;11.590;2022-08-03T11:18:08;3.03;;;2.20;;
60432;SDS011;46286;48.098;11.590;2022-08-03T11:28:44;3.85;;;1.98;;
60432;SDS011;46286;48.098;11.590;2022-08-03T11:34:11;3.28;;;2.28;;
60432;SDS011;46286;48.098;11.590;2022-08-03T11:39:41;3.03;;;2.30;;
60432;SDS011;46286;48.098;11.590;2022-08-03T11:44:50;2.58;;;1.98;;
60432;SDS011;46286;48.098;11.590;2022-08-03T11:47:16;4.00;;;2.13;;
60432;SDS011;46286;48.098;11.590;2022-08-03T11:49:48;3.92;;;2.50;;
60432;SDS011;46286;48.098;11.590;2022-08-03T11:54:41;2.92;;;2.15;;
60432;SDS011;46286;48.098;11.590;2022-08-03T11:57:07;3.15;;;2.40;;
60432;SDS011;46286;48.098;11.590;2022-08-03T11:59:33;3.45;;;2.38;;
60432;SDS011;46286;48.098;11.590;2022-08-03T12:02:07;2.88;;;2.10;;
60432;SDS011;46286;48.098;11.590;2022-08-03T12:04:52;2.85;;;2.08;;
60432;SDS011;46286;48.098;11.590;2022-08-03T12:07:22;2.90;;;2.17;;
60432;SDS011;46286;48.098;11.590;2022-08-03T12:12:38;3.25;;;2.30;;
60432;SDS011;46286;48.098;11.590;2022-08-03T12:15:05;2.83;;;2.10;;
60432;SDS011;46286;48.098;11.590;2022-08-03T12:17:35;2.63;;;2.22;;
60432;SDS011;46286;48.098;11.590;2022-08-03T12:20:02;2.70;;;2.17;;
60432;SDS011;46286;48.098;11.590;2022-08-03T12:22:37;4.85;;;2.47;;
60432;SDS011;46286;48.098;11.590;2022-08-03T12:25:04;4.18;;;2.60;;
60432;SDS011;46286;48.098;11.590;2022-08-03T12:27:34;5.65;;;2.50;;
60432;SDS011;46286;48.098;11.590;2022-08-03T12:30:00;3.63;;;2.33;;
60432;SDS011;46286;48.098;11.590;2022-08-03T12:32:27;5.05;;;2.53;;
60432;SDS011;46286;48.098;11.590;2022-08-03T12:34:53;3.28;;;2.33;;
60432;SDS011;46286;48.098;11.590;2022-08-03T12:37:23;4.82;;;2.50;;
60432;SDS011;46286;48.098;11.590;2022-08-03T12:39:50;3.25;;;2.58;;
60432;SDS011;46286;48.098;11.590;2022-08-03T12:42:17;3.97;;;2.60;;
60432;SDS011;46286;48.098;11.590;2022-08-03T12:44:43;3.92;;;2.38;;
60432;SDS011;46286;48.098;11.590;2022-08-03T12:47:10;3.45;;;2.60;;
60432;SDS011;46286;48.098;11.590;2022-08-03T12:49:49;4.13;;;2.45;;
60432;SDS011;46286;48.098;11.590;2022-08-03T12:52:16;3.60;;;2.47;;
60432;SDS011;46286;48.098;11.590;2022-08-03T12:54:53;4.55;;;2.53;;
60432;SDS011;46286;48.098;11.590;2022-08-03T12:57:21;2.95;;;2.40;;
60432;SDS011;46286;48.098;11.590;2022-08-03T12:59:47;4.82;;;2.83;;
60432;SDS011;46286;48.098;11.590;2022-08-03T13:04:42;4.03;;;2.60;;
60432;SDS011;46286;48.098;11.590;2022-08-03T13:07:09;3.50;;;2.55;;
60432;SDS011;46286;48.098;11.590;2022-08-03T13:14:39;3.20;;;2.35;;
60432;SDS011;46286;48.098;11.590;2022-08-03T13:17:06;5.28;;;2.75;;
60432;SDS011;46286;48.098;11.590;2022-08-03T13:19:32;7.07;;;2.83;;
60432;SDS011;46286;48.098;11.590;2022-08-03T13:22:20;6.13;;;2.80;;
60432;SDS011;46286;48.098;11.590;2022-08-03T13:24:49;4.18;;;2.80;;
60432;SDS011;46286;48.098;11.590;2022-08-03T13:27:16;3.92;;;2.80;;
60432;SDS011;46286;48.098;11.590;2022-08-03T13:29:42;3.78;;;2.72;;
60432;SDS011;46286;48.098;11.590;2022-08-03T13:32:08;4.88;;;2.95;;
60432;SDS011;46286;48.098;11.590;2022-08-03T13:34:34;4.45;;;2.80;;
60432;SDS011;46286;48.098;11.590;2022-08-03T13:37:00;4.72;;;2.60;;
60432;SDS011;46286;48.098;11.590;2022-08-03T13:39:26;5.45;;;3.10;;
60432;SDS011;46286;48.098;11.590;2022-08-03T13:41:52;5.05;;;2.90;;
60432;SDS011;46286;48.098;11.590;2022-08-03T13:44:17;5.05;;;2.95;;
60432;SDS011;46286;48.098;11.590;2022-08-03T13:46:44;3.70;;;3.00;;
60432;SDS011;46286;48.098;11.590;2022-08-03T13:49:10;5.18;;;3.20;;
60432;SDS011;46286;48.098;11.590;2022-08-03T13:51:35;5.25;;;3.00;;
60432;SDS011;46286;48.098;11.590;2022-08-03T13:54:01;7.32;;;3.40;;
60432;SDS011;46286;48.098;11.590;2022-08-03T13:56:28;6.07;;;3.00;;
60432;SDS011;46286;48.098;11.590;2022-08-03T13:58:54;5.57;;;3.30;;
60432;SDS011;46286;48.098;11.590;2022-08-03T14:01:20;6.32;;;2.85;;
60432;SDS011;46286;48.098;11.590;2022-08-03T14:03:49;6.30;;;3.20;;
60432;SDS011;46286;48.098;11.590;2022-08-03T14:06:18;7.13;;;2.80;;
60432;SDS011;46286;48.098;11.590;2022-08-03T14:08:44;8.10;;;3.00;;
60432;SDS011;46286;48.098;11.590;2022-08-03T14:11:10;4.45;;;3.38;;
60432;SDS011;46286;48.098;11.590;2022-08-03T14:13:36;4.45;;;2.75;;
60432;SDS011;46286;48.098;11.590;2022-08-03T14:16:02;4.50;;;2.85;;
60432;SDS011;46286;48.098;11.590;2022-08-03T14:18:28;4.75;;;2.95;;
60432;SDS011;46286;48.098;11.590;2022-08-03T14:20:53;4.05;;;2.92;;
60432;SDS011;46286;48.098;11.590;2022-08-03T14:23:19;4.03;;;2.90;;
60432;SDS011;46286;48.098;11.590;2022-08-03T14:25:45;5.70;;;3.05;;
60432;SDS011;46286;48.098;11.590;2022-08-03T14:28:10;4.28;;;2.80;;
60432;SDS011;46286;48.098;11.590;2022-08-03T14:30:36;5.93;;;2.80;;
60432;SDS011;46286;48.098;11.590;2022-08-03T14:33:01;4.80;;;3.08;;
60432;SDS011;46286;48.098;11.590;2022-08-03T14:35:27;3.65;;;2.90;;
60432;SDS011;46286;48.098;11.590;2022-08-03T14:37:53;5.88;;;3.10;;
60432;SDS011;46286;48.098;11.590;2022-08-03T14:40:19;6.85;;;2.90;;
60432;SDS011;46286;48.098;11.590;2022-08-03T14:42:44;3.72;;;2.80;;
60432;SDS011;46286;48.098;11.590;2022-08-03T14:45:10;5.55;;;3.20;;
60432;SDS011;46286;48.098;11.590;2022-08-03T14:47:37;8.77;;;3.17;;
60432;SDS011;46286;48.098;11.590;2022-08-03T14:50:03;5.40;;;2.85;;
60432;SDS011;46286;48.098;11.590;2022-08-03T14:52:30;6.07;;;2.88;;
60432;SDS011;46286;48.098;11.590;2022-08-03T14:54:56;5.13;;;2.78;;
60432;SDS011;46286;48.098;11.590;2022-08-03T14:57:22;6.45;;;2.80;;
60432;SDS011;46286;48.098;11.590;2022-08-03T14:59:48;5.68;;;2.88;;
60432;SDS011;46286;48.098;11.590;2022-08-03T15:02:13;6.60;;;3.13;;
60432;SDS011;46286;48.098;11.590;2022-08-03T15:04:39;5.28;;;2.90;;
60432;SDS011;46286;48.098;11.590;2022-08-03T15:07:05;10.10;;;2.80;;
60432;SDS011;46286;48.098;11.590;2022-08-03T15:09:30;3.90;;;2.70;;
60432;SDS011;46286;48.098;11.590;2022-08-03T15:11:56;7.65;;;3.17;;
60432;SDS011;46286;48.098;11.590;2022-08-03T15:14:21;4.85;;;3.08;;
60432;SDS011;46286;48.098;11.590;2022-08-03T15:16:47;8.73;;;2.97;;
60432;SDS011;46286;48.098;11.590;2022-08-03T15:19:12;10.23;;;2.90;;
60432;SDS011;46286;48.098;11.590;2022-08-03T15:21:38;4.95;;;2.97;;
60432;SDS011;46286;48.098;11.590;2022-08-03T15:24:03;5.00;;;2.88;;